createdAt,value
2024-03-01T00:01:13.059Z,100254.91
2024-03-01T00:03:40.373Z,100245.23
2024-03-01T00:06:07.589Z,100243.77
2024-03-01T00:08:34.876Z,100243.81
2024-03-01T00:11:06.946Z,100238.16
2024-03-01T00:13:36.731Z,100239.92
2024-03-01T00:16:04.169Z,100236.64
2024-03-01T00:18:31.629Z,100230.14
2024-03-01T00:20:59.344Z,100226.98
2024-03-01T00:23:28.579Z,100230.55
2024-03-01T00:25:57.780Z,100225.11
2024-03-01T00:28:25.170Z,100216.98
2024-03-01T00:30:54.307Z,100215.95
2024-03-01T00:33:21.868Z,100213.59
2024-03-01T00:35:49.252Z,100213.07
2024-03-01T00:38:16.831Z,100209.73
2024-03-01T00:40:44.306Z,100212.17
2024-03-01T00:43:14.667Z,100211.20
2024-03-01T00:45:42.103Z,100212.63
2024-03-01T00:48:14.937Z,100216.13
2024-03-01T00:50:45.114Z,100215.75
2024-03-01T00:53:12.768Z,100217.08
2024-03-01T00:55:40.602Z,100221.79
2024-03-01T00:58:07.728Z,100222.31
2024-03-01T01:00:35.448Z,100216.45
2024-03-01T01:03:02.704Z,100202.66
2024-03-01T01:05:29.737Z,100198.91
2024-03-01T01:07:57.139Z,100192.83
2024-03-01T01:10:24.165Z,100188.71
2024-03-01T01:12:51.298Z,100183.91
2024-03-01T01:15:18.755Z,100179.63
2024-03-01T01:17:46.053Z,100169.06
2024-03-01T01:20:13.485Z,100159.89
2024-03-01T01:22:41.057Z,100160.57
2024-03-01T01:25:08.534Z,100163.55
2024-03-01T01:27:35.580Z,100166.67
2024-03-01T01:30:02.909Z,100167.09
2024-03-01T01:32:30.031Z,100174.38
2024-03-01T01:34:57.124Z,100172.20
2024-03-01T01:37:24.263Z,100171.63
2024-03-01T01:39:51.639Z,100165.30
2024-03-01T01:42:18.619Z,100167.94
2024-03-01T01:44:47.222Z,100168.10
2024-03-01T01:47:15.798Z,100167.30
2024-03-01T01:49:43.042Z,100169.20
2024-03-01T01:52:11.260Z,100163.70
2024-03-01T01:54:38.783Z,100159.58
2024-03-01T01:57:06.307Z,100151.44
2024-03-01T01:59:33.566Z,100143.73
2024-03-01T02:02:00.939Z,100142.23
2024-03-01T02:04:30.109Z,100140.86
2024-03-01T02:06:57.542Z,100141.81
2024-03-01T02:09:24.751Z,100142.11
2024-03-01T02:11:52.963Z,100145.17
2024-03-01T02:14:20.202Z,100148.56
2024-03-01T02:16:47.912Z,100144.45
2024-03-01T02:19:19.241Z,100140.95
2024-03-01T02:21:58.940Z,100140.30
2024-03-01T02:24:26.087Z,100137.19
2024-03-01T02:26:58.267Z,100127.84
2024-03-01T02:29:27.750Z,100121.70
2024-03-01T02:31:56.432Z,100114.05
2024-03-01T02:34:23.468Z,100115.21
2024-03-01T02:36:50.732Z,100112.55
2024-03-01T02:39:20.383Z,100110.23
2024-03-01T02:41:51.304Z,100109.27
2024-03-01T02:44:22.747Z,100107.33
2024-03-01T02:46:50.099Z,100108.86
2024-03-01T02:49:17.309Z,100103.53
2024-03-01T02:51:44.473Z,100102.01
2024-03-01T02:54:11.783Z,100102.42
2024-03-01T02:56:39.001Z,100102.17
2024-03-01T02:59:06.037Z,100101.39
2024-03-01T03:01:33.723Z,100099.55
2024-03-01T03:04:01.004Z,100103.94
2024-03-01T03:06:28.339Z,100108.11
2024-03-01T03:08:56.096Z,100110.43
2024-03-01T03:11:23.230Z,100112.66
2024-03-01T03:13:50.284Z,100111.18
2024-03-01T03:16:17.619Z,100116.26
2024-03-01T03:18:44.682Z,100122.70
2024-03-01T03:21:12.002Z,100126.02
2024-03-01T03:23:39.452Z,100129.52
2024-03-01T03:26:06.509Z,100130.27
2024-03-01T03:28:33.751Z,100127.99
2024-03-01T03:31:00.910Z,100127.59
2024-03-01T03:33:28.562Z,100129.23
2024-03-01T03:35:55.722Z,100133.62
2024-03-01T03:38:22.717Z,100135.25
2024-03-01T03:40:49.723Z,100132.88
2024-03-01T03:43:16.849Z,100141.44
2024-03-01T03:45:44.004Z,100148.92
2024-03-01T03:48:11.235Z,100150.52
2024-03-01T03:50:38.423Z,100151.93
2024-03-01T03:53:05.725Z,100154.83
2024-03-01T03:55:32.879Z,100158.42
2024-03-01T03:58:00.091Z,100155.84
2024-03-01T04:00:27.135Z,100156.15
2024-03-01T04:02:54.308Z,100156.31
2024-03-01T04:05:21.474Z,100157.58
2024-03-01T04:07:49.056Z,100163.64
2024-03-01T04:10:16.198Z,100169.14
2024-03-01T04:12:43.739Z,100170.77
2024-03-01T04:15:11.006Z,100177.27
2024-03-01T04:17:38.033Z,100179.27
2024-03-01T04:20:07.244Z,100177.27
2024-03-01T04:22:34.454Z,100173.63
2024-03-01T04:25:01.748Z,100167.34
2024-03-01T04:27:28.778Z,100169.23
2024-03-01T04:29:56.349Z,100168.55
2024-03-01T04:32:23.349Z,100163.42
2024-03-01T04:34:50.515Z,100162.86
2024-03-01T04:37:17.930Z,100161.55
2024-03-01T04:39:45.046Z,100157.81
2024-03-01T04:42:12.593Z,100154.22
2024-03-01T04:44:42.770Z,100150.69
2024-03-01T04:47:09.895Z,100155.18
2024-03-01T04:49:37.108Z,100161.31
2024-03-01T04:52:04.971Z,100165.60
2024-03-01T04:54:32.248Z,100167.77
2024-03-01T04:56:59.241Z,100165.19
2024-03-01T04:59:26.242Z,100164.50
2024-03-01T05:01:53.347Z,100170.78
2024-03-01T05:04:20.314Z,100178.54
2024-03-01T05:06:47.244Z,100180.76
2024-03-01T05:09:16.993Z,100182.29
2024-03-01T05:11:45.847Z,100185.94
2024-03-01T05:14:15.310Z,100191.52
2024-03-01T05:16:42.264Z,100196.34
2024-03-01T05:19:09.317Z,100197.55
2024-03-01T05:21:37.427Z,100200.34
2024-03-01T05:24:05.696Z,100206.63
2024-03-01T05:26:33.855Z,100215.92
2024-03-01T05:29:01.110Z,100222.61
2024-03-01T05:31:44.505Z,100230.99
2024-03-01T05:34:12.056Z,100234.01
2024-03-01T05:36:38.986Z,100233.16
2024-03-01T05:39:18.457Z,100234.47
2024-03-01T05:41:46.868Z,100237.58
2024-03-01T05:44:17.274Z,100236.63
2024-03-01T05:46:44.986Z,100235.05
2024-03-01T05:49:12.808Z,100231.56
2024-03-01T05:51:40.721Z,100230.63
2024-03-01T05:54:08.028Z,100235.97
2024-03-01T05:56:35.233Z,100237.20
2024-03-01T05:59:02.300Z,100229.27
2024-03-01T06:01:29.608Z,100229.55
2024-03-01T06:03:56.913Z,100239.85
2024-03-01T06:06:24.239Z,100247.50
2024-03-01T06:08:57.026Z,100251.58
2024-03-01T06:11:25.178Z,100261.24
2024-03-01T06:13:52.459Z,100271.08
2024-03-01T06:16:19.960Z,100283.27
2024-03-01T06:18:47.367Z,100288.44
2024-03-01T06:21:22.251Z,100290.30
2024-03-01T06:23:50.384Z,100296.80
2024-03-01T06:26:17.640Z,100296.27
2024-03-01T06:28:44.618Z,100303.56
2024-03-01T06:31:12.011Z,100301.92
2024-03-01T06:33:42.247Z,100310.91
2024-03-01T06:36:09.693Z,100314.23
2024-03-01T06:38:37.893Z,100316.77
2024-03-01T06:41:06.563Z,100319.39
2024-03-01T06:43:34.193Z,100327.70
2024-03-01T06:46:05.002Z,100336.77
2024-03-01T06:48:32.149Z,100343.53
2024-03-01T06:51:00.699Z,100351.35
2024-03-01T06:53:31.030Z,100357.74
2024-03-01T06:55:58.715Z,100360.33
2024-03-01T06:58:25.977Z,100361.34
2024-03-01T07:00:53.316Z,100366.20
2024-03-01T07:03:20.725Z,100371.31
2024-03-01T07:05:48.265Z,100370.42
2024-03-01T07:08:15.414Z,100370.04
2024-03-01T07:10:44.182Z,100366.72
2024-03-01T07:13:12.171Z,100371.47
2024-03-01T07:15:39.264Z,100373.79
2024-03-01T07:18:06.556Z,100383.25
2024-03-01T07:20:33.757Z,100385.83
2024-03-01T07:23:01.292Z,100389.84
2024-03-01T07:25:28.341Z,100393.29
2024-03-01T07:27:55.566Z,100397.61
2024-03-01T07:30:23.362Z,100402.58
2024-03-01T07:32:50.574Z,100405.80
2024-03-01T07:35:20.563Z,100408.53
2024-03-01T07:37:48.229Z,100410.54
2024-03-01T07:40:16.034Z,100412.77
2024-03-01T07:42:43.253Z,100412.87
2024-03-01T07:45:12.046Z,100417.41
2024-03-01T07:47:43.625Z,100426.02
2024-03-01T07:50:16.688Z,100436.00
2024-03-01T07:52:43.987Z,100443.88
2024-03-01T07:55:13.172Z,100450.53
2024-03-01T07:57:40.479Z,100456.86
2024-03-01T08:00:08.198Z,100464.26
2024-03-01T08:02:35.701Z,100460.77
2024-03-01T08:05:03.306Z,100455.06
2024-03-01T08:07:30.325Z,100453.16
2024-03-01T08:09:57.425Z,100456.95
2024-03-01T08:12:25.040Z,100457.08
2024-03-01T08:14:53.493Z,100453.27
2024-03-01T08:17:20.543Z,100454.36
2024-03-01T08:19:49.496Z,100449.77
2024-03-01T08:22:18.647Z,100459.39
2024-03-01T08:24:50.386Z,100467.77
2024-03-01T08:27:29.385Z,100475.14
2024-03-01T08:29:58.333Z,100485.63
2024-03-01T08:32:46.746Z,100491.14
2024-03-01T08:35:17.491Z,100491.19
2024-03-01T08:37:44.696Z,100497.15
2024-03-01T08:40:33.867Z,100498.89
2024-03-01T08:43:00.997Z,100502.42
2024-03-01T08:45:46.760Z,100500.54
2024-03-01T08:48:26.710Z,100508.61
2024-03-01T08:50:54.059Z,100509.45
2024-03-01T08:53:49.052Z,100514.23
2024-03-01T08:56:22.055Z,100514.48
2024-03-01T08:58:50.261Z,100513.96
2024-03-01T09:01:45.758Z,100514.64
2024-03-01T09:04:39.721Z,100516.75
2024-03-01T09:07:12.987Z,100518.95
2024-03-01T09:09:41.163Z,100520.45
2024-03-01T09:12:19.041Z,100522.10
2024-03-01T09:14:46.191Z,100531.34
2024-03-01T09:17:15.147Z,100533.02
2024-03-01T09:19:48.873Z,100529.02
2024-03-01T09:22:17.776Z,100522.46
2024-03-01T09:24:46.516Z,100521.66
2024-03-01T09:27:33.385Z,100523.73
2024-03-01T09:30:12.958Z,100526.33
2024-03-01T09:32:40.201Z,100536.83
2024-03-01T09:35:07.938Z,100544.81
2024-03-01T09:37:36.145Z,100558.64
2024-03-01T09:40:46.931Z,100565.45
2024-03-01T09:43:51.151Z,100567.99
2024-03-01T09:46:28.908Z,100566.46
2024-03-01T09:49:25.879Z,100569.25
2024-03-01T09:52:31.930Z,100570.98
2024-03-01T09:55:41.030Z,100572.15
2024-03-01T09:58:13.785Z,100578.90
2024-03-01T10:00:51.808Z,100583.50
2024-03-01T10:03:18.833Z,100587.41
2024-03-01T10:06:09.537Z,100586.78
2024-03-01T10:09:02.265Z,100593.33
2024-03-01T10:12:17.044Z,100600.84
2024-03-01T10:14:57.705Z,100605.27
2024-03-01T10:18:04.028Z,100606.71
2024-03-01T10:21:11.679Z,100600.65
2024-03-01T10:23:48.118Z,100600.17
2024-03-01T10:26:29.364Z,100600.69
2024-03-01T10:29:23.933Z,100605.66
2024-03-01T10:32:09.675Z,100612.20
2024-03-01T10:35:05.259Z,100621.77
2024-03-01T10:37:50.984Z,100630.64
2024-03-01T10:40:20.685Z,100627.83
2024-03-01T10:43:04.784Z,100629.84
2024-03-01T10:45:44.625Z,100631.21
2024-03-01T10:48:12.115Z,100630.67
2024-03-01T10:50:48.020Z,100625.03
2024-03-01T10:53:22.438Z,100629.84
2024-03-01T10:56:04.580Z,100634.16
2024-03-01T10:58:56.196Z,100635.48
2024-03-01T11:01:42.178Z,100639.23
2024-03-01T11:04:16.588Z,100642.10
2024-03-01T11:07:06.652Z,100643.95
2024-03-01T11:10:00.141Z,100644.54
2024-03-01T11:12:46.906Z,100644.84
2024-03-01T11:15:16.937Z,100643.38
2024-03-01T11:17:50.333Z,100648.09
2024-03-01T11:20:29.923Z,100654.23
2024-03-01T11:23:40.280Z,100658.98
2024-03-01T11:26:23.642Z,100651.95
2024-03-01T11:28:59.210Z,100649.05
2024-03-01T11:31:39.948Z,100647.41
2024-03-01T11:34:18.210Z,100648.47
2024-03-01T11:37:02.868Z,100645.04
2024-03-01T11:39:39.102Z,100641.73
2024-03-01T11:42:23.516Z,100642.63
2024-03-01T11:45:12.770Z,100641.58
2024-03-01T11:48:11.070Z,100648.91
2024-03-01T11:51:06.540Z,100654.30
2024-03-01T11:53:51.680Z,100665.55
2024-03-01T11:56:39.950Z,100668.47
2024-03-01T11:59:29.872Z,100663.13
2024-03-01T12:02:22.809Z,100661.39
2024-03-01T12:05:06.788Z,100666.15
2024-03-01T12:07:59.536Z,100668.85
2024-03-01T12:10:42.494Z,100670.76
2024-03-01T12:13:18.218Z,100669.21
2024-03-01T12:16:05.166Z,100669.05
2024-03-01T12:18:41.735Z,100671.39
2024-03-01T12:21:36.445Z,100678.52
2024-03-01T12:24:20.274Z,100681.63
2024-03-01T12:26:54.831Z,100687.98
2024-03-01T12:29:50.243Z,100680.06
2024-03-01T12:32:27.915Z,100681.70
2024-03-01T12:35:16.465Z,100679.69
2024-03-01T12:38:08.419Z,100680.58
2024-03-01T12:41:02.727Z,100675.77
2024-03-01T12:43:57.566Z,100671.60
2024-03-01T12:47:01.489Z,100671.59
2024-03-01T12:49:48.198Z,100670.33
2024-03-01T12:52:30.469Z,100663.14
2024-03-01T12:55:07.526Z,100661.77
2024-03-01T12:58:07.151Z,100655.01
2024-03-01T13:00:47.194Z,100653.52
2024-03-01T13:03:17.096Z,100653.59
2024-03-01T13:05:45.097Z,100650.73
2024-03-01T13:08:28.115Z,100654.70
2024-03-01T13:10:58.810Z,100656.61
2024-03-01T13:13:31.013Z,100655.65
2024-03-01T13:16:16.305Z,100653.90
2024-03-01T13:18:43.442Z,100647.15
2024-03-01T13:21:25.324Z,100651.06
2024-03-01T13:24:12.735Z,100652.44
2024-03-01T13:26:40.403Z,100655.92
2024-03-01T13:29:19.629Z,100661.09
2024-03-01T13:32:10.680Z,100663.48
2024-03-01T13:34:47.559Z,100663.84
2024-03-01T13:37:38.701Z,100656.88
2024-03-01T13:40:16.430Z,100651.86
2024-03-01T13:43:23.900Z,100658.14
2024-03-01T13:46:07.705Z,100654.60
2024-03-01T13:48:40.465Z,100656.04
2024-03-01T13:51:08.962Z,100660.42
2024-03-01T13:53:38.843Z,100663.85
2024-03-01T13:56:06.778Z,100660.73
2024-03-01T13:58:42.287Z,100659.27
2024-03-01T14:01:10.400Z,100657.90
2024-03-01T14:03:38.310Z,100656.78
2024-03-01T14:06:07.345Z,100652.61
2024-03-01T14:08:35.813Z,100648.95
2024-03-01T14:11:03.062Z,100649.59
2024-03-01T14:13:30.714Z,100658.00
2024-03-01T14:16:09.646Z,100661.80
2024-03-01T14:18:37.858Z,100671.96
2024-03-01T14:21:06.882Z,100677.40
2024-03-01T14:23:34.460Z,100680.56
2024-03-01T14:26:02.956Z,100677.23
2024-03-01T14:28:30.882Z,100681.52
2024-03-01T14:30:59.924Z,100686.95
2024-03-01T14:33:28.686Z,100687.80
2024-03-01T14:36:10.470Z,100689.50
2024-03-01T14:38:39.333Z,100697.90
2024-03-01T14:41:09.015Z,100701.02
2024-03-01T14:43:47.366Z,100699.44
2024-03-01T14:46:39.797Z,100699.70
2024-03-01T14:49:20.922Z,100701.30
2024-03-01T14:51:48.063Z,100703.77
2024-03-01T14:54:32.937Z,100699.80
2024-03-01T14:57:00.275Z,100702.02
2024-03-01T14:59:28.552Z,100701.08
2024-03-01T15:01:56.281Z,100703.72
2024-03-01T15:04:24.345Z,100702.92
2024-03-01T15:06:53.287Z,100706.63
2024-03-01T15:09:24.218Z,100711.27
2024-03-01T15:11:57.241Z,100712.23
2024-03-01T15:14:26.589Z,100716.98
2024-03-01T15:16:54.929Z,100713.42
2024-03-01T15:19:25.439Z,100722.05
2024-03-01T15:21:54.002Z,100725.23
2024-03-01T15:24:22.915Z,100723.52
2024-03-01T15:26:53.997Z,100730.39
2024-03-01T15:29:22.325Z,100733.41
2024-03-01T15:31:51.647Z,100733.09
2024-03-01T15:34:20.947Z,100732.09
2024-03-01T15:36:50.520Z,100735.52
2024-03-01T15:39:23.392Z,100734.56
2024-03-01T15:41:50.612Z,100731.24
2024-03-01T15:44:21.716Z,100729.13
2024-03-01T15:46:51.515Z,100727.95
2024-03-01T15:49:20.000Z,100732.13
2024-03-01T15:51:49.556Z,100731.09
2024-03-01T15:54:19.101Z,100728.70
2024-03-01T15:56:49.229Z,100731.98
2024-03-01T15:59:16.334Z,100733.45
2024-03-01T16:01:45.763Z,100734.30
2024-03-01T16:04:15.343Z,100738.20
2024-03-01T16:06:49.021Z,100743.91
2024-03-01T16:09:16.637Z,100745.88
2024-03-01T16:11:44.143Z,100750.52
2024-03-01T16:14:13.386Z,100754.70
2024-03-01T16:16:40.766Z,100756.21
2024-03-01T16:19:08.908Z,100755.00
2024-03-01T16:21:37.100Z,100760.20
2024-03-01T16:24:09.630Z,100760.88
2024-03-01T16:26:37.036Z,100763.30
2024-03-01T16:29:04.155Z,100768.85
2024-03-01T16:31:31.395Z,100769.06
2024-03-01T16:33:59.231Z,100771.05
2024-03-01T16:36:26.313Z,100772.17
2024-03-01T16:38:54.110Z,100772.59
2024-03-01T16:41:41.177Z,100773.48
2024-03-01T16:44:44.659Z,100768.72
2024-03-01T16:47:29.954Z,100766.92
2024-03-01T16:50:02.731Z,100767.65
2024-03-01T16:52:35.196Z,100761.48
2024-03-01T16:55:05.090Z,100764.59
2024-03-01T16:57:36.430Z,100767.76
2024-03-01T17:00:07.829Z,100767.28
2024-03-01T17:02:47.024Z,100768.86
2024-03-01T17:06:01.785Z,100769.56
2024-03-01T17:08:44.592Z,100773.21
2024-03-01T17:11:19.519Z,100772.70
2024-03-01T17:13:54.958Z,100772.73
2024-03-01T17:16:28.438Z,100777.77
2024-03-01T17:19:05.779Z,100785.27
2024-03-01T17:21:39.259Z,100790.02
2024-03-01T17:24:12.587Z,100791.08
2024-03-01T17:26:44.725Z,100791.39
2024-03-01T17:29:20.100Z,100796.24
2024-03-01T17:31:48.788Z,100798.52
2024-03-01T17:34:19.345Z,100800.75
2024-03-01T17:36:54.528Z,100797.67
2024-03-01T17:39:23.035Z,100800.52
2024-03-01T17:41:51.964Z,100797.85
2024-03-01T17:44:25.736Z,100797.95
2024-03-01T17:47:02.636Z,100797.58
2024-03-01T17:49:32.735Z,100801.34
2024-03-01T17:52:03.472Z,100803.50
2024-03-01T17:54:33.075Z,100805.02
2024-03-01T17:57:06.807Z,100809.73
2024-03-01T17:59:43.176Z,100807.36
2024-03-01T18:02:13.281Z,100815.13
2024-03-01T18:04:43.931Z,100815.34
2024-03-01T18:07:26.782Z,100813.75
2024-03-01T18:09:58.130Z,100804.55
2024-03-01T18:12:39.134Z,100806.67
2024-03-01T18:17:55.552Z,100802.17
2024-03-01T18:20:24.962Z,100809.04
2024-03-01T18:22:56.095Z,100816.38
2024-03-01T18:25:27.322Z,100821.47
2024-03-01T18:27:58.883Z,100823.79
2024-03-01T18:30:29.696Z,100823.30
2024-03-01T18:33:04.220Z,100826.11
2024-03-01T18:35:41.687Z,100825.10
2024-03-01T18:38:16.389Z,100825.88
2024-03-01T18:43:33.721Z,100826.89
2024-03-01T18:46:06.234Z,100830.54
2024-03-01T18:48:39.497Z,100830.06
2024-03-01T18:51:09.630Z,100832.75
2024-03-01T18:53:40.083Z,100832.70
2024-03-01T18:56:25.830Z,100834.02
2024-03-01T18:59:02.801Z,100835.77
2024-03-01T19:01:33.220Z,100845.96
2024-03-01T19:04:10.878Z,100857.16
2024-03-01T19:06:42.252Z,100875.02
2024-03-01T19:09:17.520Z,100886.48
2024-03-01T19:11:48.302Z,100899.13
2024-03-01T19:14:18.910Z,100912.60
2024-03-01T19:16:59.658Z,100919.46
2024-03-01T19:19:32.655Z,100925.42
2024-03-01T19:22:03.342Z,100925.73
2024-03-01T19:24:39.501Z,100931.76
2024-03-01T19:27:09.557Z,100932.50
2024-03-01T19:29:43.434Z,100929.65
2024-03-01T19:32:11.747Z,100928.64
2024-03-01T19:34:44.593Z,100937.81
2024-03-01T19:37:15.725Z,100943.63
2024-03-01T19:39:49.303Z,100944.60
2024-03-01T19:42:22.411Z,100947.24
2024-03-01T19:44:50.124Z,100948.94
2024-03-01T19:47:19.958Z,100949.93
2024-03-01T19:49:49.922Z,100950.00
2024-03-01T19:52:26.327Z,100954.27
2024-03-01T19:54:58.450Z,100953.05
2024-03-01T19:57:31.000Z,100950.03
2024-03-01T20:00:03.728Z,100949.30
2024-03-01T20:02:41.593Z,100948.23
2024-03-01T20:05:12.245Z,100948.23
2024-03-01T20:07:46.000Z,100943.27
2024-03-01T20:10:20.876Z,100948.88
2024-03-01T20:12:49.512Z,100948.05
2024-03-01T20:15:22.556Z,100952.53
2024-03-01T20:20:35.515Z,100944.14
2024-03-01T20:23:08.154Z,100941.52
2024-03-01T20:25:37.511Z,100936.88
2024-03-01T20:28:13.004Z,100931.77
2024-03-01T20:30:40.500Z,100919.24
2024-03-01T20:33:19.274Z,100884.06
2024-03-01T20:35:53.690Z,100886.71
2024-03-01T20:38:26.362Z,100897.45
2024-03-01T20:41:01.442Z,100902.95
2024-03-01T20:43:36.496Z,100906.02
2024-03-01T20:46:14.462Z,100908.50
2024-03-01T20:48:49.911Z,100914.31
2024-03-01T20:51:20.878Z,100922.61
2024-03-01T20:53:51.813Z,100926.73
2024-03-01T20:56:22.536Z,100933.59
2024-03-01T20:58:57.933Z,100940.20
2024-03-01T21:01:32.569Z,100947.07
2024-03-01T21:04:01.809Z,100945.23
2024-03-01T21:06:32.022Z,100940.62
2024-03-01T21:09:08.844Z,100938.41
2024-03-01T21:11:45.611Z,100927.95
2024-03-01T21:14:15.249Z,100924.50
2024-03-01T21:16:50.113Z,100935.23
2024-03-01T21:19:20.086Z,100939.71
2024-03-01T21:24:27.300Z,100950.81
2024-03-01T21:26:57.118Z,100948.21
2024-03-01T21:29:28.249Z,100940.70
2024-03-01T21:32:01.697Z,100939.97
2024-03-01T21:34:34.589Z,100952.48
2024-03-01T21:37:02.407Z,100956.29
2024-03-01T21:39:36.500Z,100957.45
2024-03-01T21:42:08.238Z,100958.52
2024-03-01T21:44:38.488Z,100955.60
2024-03-01T21:47:08.150Z,100954.32
2024-03-01T21:49:35.609Z,100962.09
2024-03-01T21:52:09.435Z,100966.96
2024-03-01T21:54:40.581Z,100968.77
2024-03-01T21:57:08.502Z,100969.98
2024-03-01T21:59:35.469Z,100968.39
2024-03-01T22:02:07.109Z,100961.95
2024-03-01T22:04:34.669Z,100961.47
2024-03-01T22:07:02.268Z,100963.25
2024-03-01T22:09:30.651Z,100960.88
2024-03-01T22:11:57.720Z,100959.77
2024-03-01T22:14:26.497Z,100953.46
2024-03-01T22:16:53.591Z,100943.84
2024-03-01T22:19:20.746Z,100934.91
2024-03-01T22:21:52.021Z,100911.41
2024-03-01T22:24:23.178Z,100891.54
2024-03-01T22:26:50.344Z,100893.12
2024-03-01T22:29:18.862Z,100907.70
2024-03-01T22:51:51.377Z,100927.58
2024-03-01T22:54:28.068Z,100927.63
2024-03-01T22:56:58.417Z,100934.69
2024-03-01T22:59:50.796Z,100931.17
2024-03-01T23:02:18.150Z,100935.93
2024-03-01T23:04:46.331Z,100947.39
2024-03-01T23:07:13.977Z,100946.89
2024-03-01T23:09:44.318Z,100944.19
2024-03-01T23:12:12.893Z,100939.63
2024-03-01T23:14:49.453Z,100936.36
2024-03-01T23:17:17.322Z,100936.58
2024-03-01T23:19:45.803Z,100945.60
2024-03-01T23:22:16.036Z,100944.38
2024-03-01T23:24:43.783Z,100944.59
2024-03-01T23:27:11.108Z,100947.13
2024-03-01T23:29:38.296Z,100956.21
2024-03-01T23:32:07.496Z,100963.09
2024-03-01T23:34:35.642Z,100965.20
2024-03-01T23:37:03.060Z,100963.09
2024-03-01T23:39:31.037Z,100968.90
2024-03-01T23:41:58.280Z,100961.98
2024-03-01T23:44:25.327Z,100959.34
2024-03-01T23:46:52.418Z,100954.33
2024-03-01T23:49:19.725Z,100952.48
2024-03-01T23:51:47.125Z,100952.47
2024-03-01T23:54:15.688Z,100962.56
2024-03-01T23:56:43.507Z,100973.25
2024-03-01T23:59:10.634Z,100980.77
